Airfield :
LOGIN :

Register | Disclaimer

   EN    FR    IT 

 










Legend :    VFR   Marginal VFR   IFR   Intensive IFR   Very Intensive IFR
Visi :
Ceiling :
>= 8 km
>= 3000ft
5 to 8 km
1000 to 3000 ft
1500m to 5 km
500 to 1000 ft
800 to 1500m
200 to 500 ft
< 800m
< 200 ft
Symbols :   Thunderstorms  Fog  Heavy snow  Heavy precipitations  Wind > 20 kt
SIGMETs :     Misc.  Thunderstorms  Icing  Turbulence  Mountain Waves  Volcanic Ashes






- Airport Elevation : 481 ft
- IATA code : DNK


UKDD - Dnipropetrovs'k

CURRENT METAR :
  • 301830Z 32010MPS CAVOK 12/00 Q1005 R26/090070 NOSIG

EXPIRED METARs :
  • 301800Z 32008MPS CAVOK 12/M00 Q1005 R26/090070 BECMG 32007G12MPS
  • 301730Z 32008MPS CAVOK 12/00 Q1005 R26/090070 BECMG 32007G12MPS
  • 301700Z 31007MPS CAVOK 13/M00 Q1004 R26/090070 BECMG 32007G12MPS
  • 301630Z 31006MPS CAVOK 14/M01 Q1004 R26/090070 BECMG 32007G12MPS
  • 301600Z 31005MPS CAVOK 15/M02 Q1003 R26/090070 NOSIG

TAF TAF UKDD
Valid from the 30 at 18:00 until the 31 at 18:00 UTC


301701Z 3018/3118 32008MPS 9999 BKN020 TX12/3018Z TN03/3103Z
TEMPO 3018/3109 32009G14MPS BKN015CB
BECMG 3109/3110 34006MPS



MET'MAP, your aeronautical weather chart ! - Copyright ORBIFLY December 2007 - Disclaimer

ORBIFLY MET'MAP TEAM :

Programming & Development : Alexandra Zaïnal
Concept & original design : Baudouin d'Aumeries
Assistance for programming : Marc-Olivier Méhu
Technical & hardware support : Manuel Goepfert

Contact : metmap@orbifly.com




SOURCES & CREDITS :

   NOAA